createdAt,value
2022-07-26T00:01:44.628Z,25.28
2022-07-26T00:04:12.576Z,25.32
2022-07-26T00:06:40.540Z,25.14
2022-07-26T00:09:08.611Z,25.13
2022-07-26T00:11:37.987Z,25.12
2022-07-26T00:14:07.656Z,25.03
2022-07-26T00:16:36.699Z,24.98
2022-07-26T00:19:05.177Z,24.78
2022-07-26T00:21:33.180Z,24.50
2022-07-26T00:24:00.848Z,24.39
2022-07-26T00:26:28.578Z,24.23
2022-07-26T00:28:57.600Z,24.06
2022-07-26T00:31:25.340Z,23.93
2022-07-26T00:33:53.115Z,23.84
2022-07-26T00:36:20.921Z,23.81
2022-07-26T00:38:48.598Z,23.90
2022-07-26T00:41:16.300Z,23.82
2022-07-26T00:43:55.710Z,23.88
2022-07-26T00:46:24.805Z,23.82
2022-07-26T00:48:52.746Z,23.95
2022-07-26T00:51:23.143Z,24.17
2022-07-26T00:53:51.219Z,24.14
2022-07-26T00:56:19.612Z,24.30
2022-07-26T00:58:47.263Z,24.38
2022-07-26T01:01:15.222Z,24.35
2022-07-26T01:03:44.415Z,24.31
2022-07-26T01:06:12.412Z,24.38
2022-07-26T01:08:40.180Z,24.32
2022-07-26T01:11:08.018Z,24.38
2022-07-26T01:13:35.853Z,24.28
2022-07-26T01:16:04.308Z,24.15
2022-07-26T01:18:32.056Z,24.12
2022-07-26T01:21:09.069Z,24.18
2022-07-26T01:23:43.635Z,24.20
2022-07-26T01:26:12.170Z,24.18
2022-07-26T01:28:42.254Z,24.30
2022-07-26T01:31:10.226Z,24.34
2022-07-26T01:33:38.082Z,24.39
2022-07-26T01:36:06.343Z,24.32
2022-07-26T01:38:34.133Z,24.13
2022-07-26T01:41:03.164Z,24.06
2022-07-26T01:43:30.916Z,24.00
2022-07-26T01:45:58.963Z,23.92
2022-07-26T01:48:26.808Z,23.97
2022-07-26T01:50:54.606Z,23.84
2022-07-26T01:53:22.336Z,23.95
2022-07-26T01:55:50.158Z,23.82
2022-07-26T01:58:19.209Z,23.90
2022-07-26T02:00:47.062Z,23.87
2022-07-26T02:03:14.850Z,23.95
2022-07-26T02:05:42.893Z,23.98
2022-07-26T02:08:11.807Z,23.96
2022-07-26T02:10:58.306Z,23.87
2022-07-26T02:13:28.195Z,23.93
2022-07-26T02:15:58.739Z,23.96
2022-07-26T02:18:27.570Z,24.08
2022-07-26T02:20:55.720Z,24.17
2022-07-26T02:23:24.177Z,24.08
2022-07-26T02:25:52.019Z,24.15
2022-07-26T02:28:20.100Z,24.16
2022-07-26T02:30:49.980Z,24.12
2022-07-26T02:33:19.221Z,24.00
2022-07-26T02:35:47.934Z,23.76
2022-07-26T02:38:16.992Z,23.72
2022-07-26T02:40:44.924Z,23.72
2022-07-26T02:43:13.142Z,23.76
2022-07-26T02:45:40.800Z,23.82
2022-07-26T02:48:09.893Z,23.87
2022-07-26T02:50:37.632Z,23.87
2022-07-26T02:53:05.364Z,23.81
2022-07-26T02:55:33.120Z,23.83
2022-07-26T02:58:00.864Z,23.91
2022-07-26T03:00:29.142Z,23.92
2022-07-26T03:02:57.597Z,23.98
2022-07-26T03:05:26.891Z,24.02
2022-07-26T03:07:54.823Z,24.07
2022-07-26T03:10:22.610Z,24.12
2022-07-26T03:12:50.508Z,24.05
2022-07-26T03:15:18.753Z,23.97
2022-07-26T03:17:46.636Z,23.91
2022-07-26T03:20:15.079Z,23.91
2022-07-26T03:22:44.355Z,23.92
2022-07-26T03:25:12.370Z,23.95
2022-07-26T03:27:40.215Z,23.93
2022-07-26T03:30:09.514Z,23.99
2022-07-26T03:32:37.456Z,24.08
2022-07-26T03:35:08.218Z,24.02
2022-07-26T03:37:45.143Z,23.95
2022-07-26T03:40:16.578Z,23.92
2022-07-26T03:42:44.754Z,23.94
2022-07-26T03:45:14.005Z,23.96
2022-07-26T03:47:42.376Z,23.99
2022-07-26T03:50:13.624Z,23.99
2022-07-26T03:52:42.084Z,23.92
2022-07-26T03:55:24.616Z,23.85
2022-07-26T03:57:53.763Z,23.85
2022-07-26T04:00:21.581Z,23.91
2022-07-26T04:02:49.278Z,23.86
2022-07-26T04:05:16.977Z,23.85
2022-07-26T04:07:53.315Z,23.74
2022-07-26T04:10:22.436Z,23.50
2022-07-26T04:12:50.716Z,23.51
2022-07-26T04:15:21.254Z,23.48
2022-07-26T04:17:49.375Z,23.58
2022-07-26T04:20:18.072Z,23.68
2022-07-26T04:22:46.020Z,23.71
2022-07-26T04:25:13.982Z,23.70
2022-07-26T04:27:41.645Z,23.74
2022-07-26T04:30:15.140Z,23.64
2022-07-26T04:32:46.366Z,23.68
2022-07-26T04:35:15.114Z,23.64
2022-07-26T04:37:47.527Z,23.59
2022-07-26T04:40:21.441Z,23.59
2022-07-26T04:42:51.858Z,23.54
2022-07-26T04:45:19.641Z,23.50
2022-07-26T04:47:50.660Z,23.36
2022-07-26T04:50:18.964Z,23.21
2022-07-26T04:52:46.813Z,23.23
2022-07-26T04:55:15.276Z,23.28
2022-07-26T04:57:43.088Z,23.39
2022-07-26T05:00:22.261Z,23.35
2022-07-26T05:02:55.117Z,23.30
2022-07-26T05:05:23.771Z,23.35
2022-07-26T05:07:54.148Z,23.33
2022-07-26T05:10:23.072Z,23.43
2022-07-26T05:12:50.876Z,23.51
2022-07-26T05:15:18.562Z,23.42
2022-07-26T05:17:46.667Z,23.54
2022-07-26T05:20:17.931Z,23.38
2022-07-26T05:22:45.599Z,23.35
2022-07-26T05:25:13.360Z,23.38
2022-07-26T05:27:41.768Z,23.14
2022-07-26T05:30:10.907Z,23.04
2022-07-26T05:32:38.854Z,23.11
2022-07-26T05:35:07.970Z,23.15
2022-07-26T05:37:37.420Z,23.15
2022-07-26T05:40:06.630Z,23.09
2022-07-26T05:42:34.363Z,23.00
2022-07-26T05:45:02.153Z,23.12
2022-07-26T05:47:30.410Z,23.14
2022-07-26T05:49:58.167Z,23.18
2022-07-26T05:52:25.923Z,23.04
2022-07-26T05:54:54.967Z,23.10
2022-07-26T05:57:22.711Z,23.08
2022-07-26T05:59:50.493Z,23.15
2022-07-26T06:02:18.315Z,23.17
2022-07-26T06:04:47.378Z,23.05
2022-07-26T06:07:15.597Z,23.04
2022-07-26T06:09:43.538Z,23.03
2022-07-26T06:12:12.681Z,23.06
2022-07-26T06:14:40.497Z,23.01
2022-07-26T06:17:08.216Z,23.06
2022-07-26T06:19:36.227Z,22.90
2022-07-26T06:22:04.568Z,22.91
2022-07-26T06:24:32.491Z,22.92
2022-07-26T06:27:05.054Z,23.04
2022-07-26T06:29:37.638Z,22.90
2022-07-26T06:34:58.558Z,22.99
2022-07-26T06:37:26.364Z,23.08
2022-07-26T06:39:54.053Z,23.06
2022-07-26T06:42:25.916Z,23.18
2022-07-26T06:44:54.947Z,23.25
2022-07-26T06:47:22.658Z,23.28
2022-07-26T06:49:50.444Z,23.18
2022-07-26T06:52:18.314Z,23.09
2022-07-26T06:54:46.247Z,22.99
2022-07-26T06:57:14.185Z,23.05
2022-07-26T06:59:41.898Z,22.96
2022-07-26T07:02:11.043Z,22.72
2022-07-26T07:04:38.887Z,22.79
2022-07-26T07:07:07.587Z,22.85
2022-07-26T07:09:37.520Z,22.95
2022-07-26T07:12:10.282Z,22.80
2022-07-26T07:14:39.138Z,22.82
2022-07-26T07:17:12.933Z,22.92
2022-07-26T07:19:43.125Z,22.96
2022-07-26T07:22:12.251Z,22.97
2022-07-26T07:24:41.078Z,23.03
2022-07-26T07:27:10.474Z,23.04
2022-07-26T07:29:39.004Z,23.02
2022-07-26T07:32:15.931Z,22.97
2022-07-26T07:34:48.513Z,22.74
2022-07-26T07:37:16.739Z,22.65
2022-07-26T07:39:44.643Z,22.62
2022-07-26T07:42:17.732Z,22.60
2022-07-26T07:44:45.577Z,22.53
2022-07-26T07:47:14.209Z,22.53
2022-07-26T07:49:42.019Z,22.62
2022-07-26T07:52:11.055Z,22.67
2022-07-26T07:54:39.271Z,22.62
2022-07-26T07:57:07.014Z,22.65
2022-07-26T07:59:39.104Z,22.73
2022-07-26T08:02:07.831Z,22.81
2022-07-26T08:04:35.762Z,22.78
2022-07-26T08:07:03.695Z,22.72
2022-07-26T08:09:33.877Z,22.79
2022-07-26T08:12:02.107Z,22.90
2022-07-26T08:14:29.985Z,22.77
2022-07-26T08:16:57.881Z,22.85
2022-07-26T08:19:25.998Z,22.87
2022-07-26T08:21:57.011Z,22.71
2022-07-26T08:24:24.955Z,22.74
2022-07-26T08:26:54.476Z,22.37
2022-07-26T08:29:25.259Z,22.22
2022-07-26T08:31:54.201Z,22.06
2022-07-26T08:34:22.613Z,21.95
2022-07-26T08:37:15.499Z,21.77
2022-07-26T08:39:38.136Z,21.63
2022-07-26T08:42:14.226Z,21.52
2022-07-26T08:44:43.513Z,21.50
2022-07-26T08:47:12.445Z,21.45
2022-07-26T08:49:40.538Z,21.62
2022-07-26T08:52:09.830Z,21.57
2022-07-26T08:54:38.264Z,21.76
2022-07-26T08:57:10.717Z,21.71
2022-07-26T08:59:38.605Z,21.79
2022-07-26T09:02:08.974Z,21.96
2022-07-26T09:04:43.831Z,21.91
2022-07-26T09:07:14.124Z,21.77
2022-07-26T09:09:58.075Z,21.82
2022-07-26T09:12:29.726Z,21.92
2022-07-26T09:14:58.200Z,21.71
2022-07-26T09:17:40.669Z,21.78
2022-07-26T09:20:11.269Z,21.98
2022-07-26T09:22:40.304Z,21.97
2022-07-26T09:25:21.957Z,21.97
2022-07-26T09:27:52.079Z,21.84
2022-07-26T09:30:21.059Z,21.95
2022-07-26T09:32:59.125Z,22.05
2022-07-26T09:38:15.940Z,21.98
2022-07-26T09:40:44.144Z,21.93
2022-07-26T09:43:19.791Z,22.03
2022-07-26T09:46:04.220Z,22.20
2022-07-26T09:48:52.163Z,22.30
2022-07-26T09:51:36.082Z,22.37
2022-07-26T09:54:04.281Z,22.45
2022-07-26T09:56:44.179Z,22.47
2022-07-26T09:59:14.032Z,22.48
2022-07-26T10:01:42.269Z,22.49
2022-07-26T10:04:10.489Z,22.56
2022-07-26T10:06:38.499Z,22.61
2022-07-26T10:09:07.153Z,22.76
2022-07-26T10:11:39.770Z,22.80
2022-07-26T10:14:40.879Z,22.82
2022-07-26T10:17:43.084Z,22.91
2022-07-26T10:20:19.355Z,22.94
2022-07-26T10:22:52.383Z,23.02
2022-07-26T10:25:48.747Z,23.09
2022-07-26T10:28:27.888Z,23.06
2022-07-26T10:31:29.470Z,23.24
2022-07-26T10:33:59.455Z,23.40
2022-07-26T10:36:30.419Z,23.35
2022-07-26T10:39:07.687Z,23.39
2022-07-26T10:41:38.354Z,23.40
2022-07-26T10:44:24.959Z,23.44
2022-07-26T10:47:19.486Z,23.50
2022-07-26T10:49:58.385Z,23.52
2022-07-26T10:52:28.415Z,23.57
2022-07-26T10:55:17.946Z,23.64
2022-07-26T10:57:48.212Z,23.71
2022-07-26T11:00:26.274Z,23.66
2022-07-26T11:02:58.768Z,23.70
2022-07-26T11:05:31.124Z,23.73
2022-07-26T11:08:08.507Z,23.77
2022-07-26T11:10:41.311Z,23.84
2022-07-26T11:13:17.466Z,23.99
2022-07-26T11:15:48.032Z,24.02
2022-07-26T11:18:20.004Z,24.14
2022-07-26T11:20:49.982Z,24.21
2022-07-26T11:23:33.496Z,24.26
2022-07-26T11:26:02.822Z,24.14
2022-07-26T11:28:30.849Z,24.07
2022-07-26T11:30:58.912Z,24.20
2022-07-26T11:33:41.623Z,24.27
2022-07-26T11:36:10.071Z,24.21
2022-07-26T11:38:48.674Z,24.20
2022-07-26T11:41:20.036Z,24.21
2022-07-26T11:44:02.518Z,24.27
2022-07-26T12:00:54.714Z,24.39
2022-07-26T12:03:25.843Z,24.37
2022-07-26T12:06:33.061Z,24.44
2022-07-26T12:12:51.891Z,24.17
2022-07-26T12:18:55.550Z,24.10
2022-07-26T12:21:43.864Z,24.10
2022-07-26T12:24:42.910Z,24.13
2022-07-26T12:27:13.264Z,24.18
2022-07-26T12:29:43.077Z,24.19
2022-07-26T12:32:17.538Z,24.20
2022-07-26T12:34:57.477Z,24.32
2022-07-26T12:37:37.608Z,24.25
2022-07-26T12:40:10.804Z,24.42
2022-07-26T12:42:40.570Z,24.44
2022-07-26T12:45:10.573Z,24.38
2022-07-26T12:47:41.869Z,24.48
2022-07-26T12:50:11.959Z,24.54
2022-07-26T12:52:40.807Z,24.53
2022-07-26T12:55:11.484Z,24.56
2022-07-26T12:57:39.205Z,24.68
2022-07-26T13:00:22.545Z,24.46
2022-07-26T13:02:56.179Z,24.46
2022-07-26T13:05:24.535Z,24.25
2022-07-26T13:07:52.622Z,24.26
2022-07-26T13:10:36.370Z,24.32
2022-07-26T13:13:04.375Z,24.31
2022-07-26T13:15:37.180Z,24.30
2022-07-26T13:18:08.779Z,24.28
2022-07-26T13:20:38.140Z,24.33
2022-07-26T13:23:06.054Z,24.41
2022-07-26T13:25:38.296Z,24.39
2022-07-26T13:30:47.388Z,24.23
2022-07-26T13:33:17.665Z,24.31
2022-07-26T13:35:45.736Z,24.30
2022-07-26T13:38:19.744Z,24.33
2022-07-26T13:40:47.856Z,24.40
2022-07-26T13:43:16.119Z,24.48
2022-07-26T13:45:44.334Z,24.48
2022-07-26T13:53:27.252Z,24.83
2022-07-26T13:55:55.015Z,24.96
2022-07-26T13:58:23.261Z,24.70
2022-07-26T14:00:51.461Z,24.63
2022-07-26T14:03:22.748Z,24.56
2022-07-26T14:05:50.990Z,24.51
2022-07-26T14:08:19.159Z,24.45
2022-07-26T14:10:48.524Z,24.28
2022-07-26T14:13:16.743Z,24.28
2022-07-26T14:15:45.254Z,24.35
2022-07-26T14:18:13.239Z,24.30
2022-07-26T14:20:41.467Z,24.19
2022-07-26T14:23:09.530Z,24.18
2022-07-26T14:25:37.904Z,24.23
2022-07-26T14:36:34.296Z,24.08
2022-07-26T14:39:03.253Z,24.09
2022-07-26T14:41:31.624Z,24.07
2022-07-26T14:46:53.747Z,24.09
2022-07-26T14:52:06.586Z,24.26
2022-07-26T14:54:34.401Z,24.33
2022-07-26T14:57:02.086Z,24.28
2022-07-26T14:59:29.799Z,24.33
2022-07-26T15:02:00.392Z,24.30
2022-07-26T15:04:31.621Z,24.19
2022-07-26T15:07:00.696Z,24.23
2022-07-26T15:09:29.796Z,24.17
2022-07-26T15:11:57.481Z,24.09
2022-07-26T15:14:25.472Z,24.08
2022-07-26T15:16:53.276Z,24.17
2022-07-26T15:19:25.355Z,24.25
2022-07-26T15:21:54.927Z,24.39
2022-07-26T15:24:23.194Z,24.58
2022-07-26T15:26:53.723Z,24.84
2022-07-26T15:29:21.972Z,25.00
2022-07-26T15:31:50.468Z,24.99
2022-07-26T15:34:18.421Z,24.87
2022-07-26T15:36:46.156Z,24.77
2022-07-26T15:39:17.323Z,24.78
2022-07-26T15:41:45.835Z,24.90
2022-07-26T15:44:16.812Z,25.00
2022-07-26T15:46:45.756Z,25.16
2022-07-26T15:49:16.882Z,25.19
2022-07-26T15:51:44.722Z,25.30
2022-07-26T15:54:15.130Z,25.34
2022-07-26T15:56:44.067Z,25.40
2022-07-26T15:59:11.849Z,25.78
2022-07-26T16:01:40.955Z,26.17
2022-07-26T16:05:11.813Z,26.55
2022-07-26T16:07:41.483Z,26.78
2022-07-26T16:10:10.754Z,26.95
2022-07-26T16:12:38.686Z,27.01
2022-07-26T16:15:07.914Z,27.14
2022-07-26T16:17:37.225Z,27.36
2022-07-26T16:20:05.851Z,27.33
2022-07-26T16:22:33.631Z,27.53
2022-07-26T16:25:01.380Z,27.66
2022-07-26T16:27:29.131Z,27.55
2022-07-26T16:30:15.557Z,27.69
2022-07-26T16:32:44.725Z,27.74
2022-07-26T16:35:12.982Z,27.79
2022-07-26T16:37:41.521Z,27.39
2022-07-26T16:40:10.371Z,26.94
2022-07-26T16:42:38.313Z,26.77
2022-07-26T16:45:06.651Z,26.72
2022-07-26T16:47:34.339Z,26.70
2022-07-26T16:50:03.413Z,26.41
2022-07-26T16:52:31.082Z,26.25
2022-07-26T16:54:59.028Z,26.26
2022-07-26T16:57:27.605Z,26.16
2022-07-26T16:59:55.287Z,26.12
2022-07-26T17:02:23.642Z,26.12
2022-07-26T17:04:52.171Z,26.18
2022-07-26T17:07:25.817Z,25.91
2022-07-26T17:09:54.517Z,25.72
2022-07-26T17:12:22.288Z,25.60
2022-07-26T17:14:50.044Z,25.66
2022-07-26T17:17:17.750Z,25.61
2022-07-26T17:19:45.505Z,25.64
2022-07-26T17:22:13.217Z,25.60
2022-07-26T17:24:42.286Z,25.62
2022-07-26T17:27:09.977Z,25.54
2022-07-26T17:29:37.709Z,25.56
2022-07-26T17:32:06.054Z,25.60
2022-07-26T17:34:33.788Z,25.55
2022-07-26T17:37:05.775Z,25.39
2022-07-26T17:39:52.352Z,25.29
2022-07-26T17:42:22.220Z,25.10
2022-07-26T17:44:50.436Z,24.91
2022-07-26T17:47:29.101Z,24.75
2022-07-26T17:50:14.095Z,24.73
2022-07-26T17:52:47.095Z,24.73
2022-07-26T17:55:14.774Z,24.73
2022-07-26T17:57:43.842Z,24.80
2022-07-26T18:00:12.870Z,24.82
2022-07-26T18:02:40.601Z,24.82
2022-07-26T18:05:08.859Z,24.89
2022-07-26T18:07:36.582Z,24.93
2022-07-26T18:10:05.537Z,24.96
2022-07-26T18:12:33.347Z,24.97
2022-07-26T18:15:02.408Z,25.00
2022-07-26T18:17:30.200Z,24.87
2022-07-26T18:19:57.858Z,24.88
2022-07-26T18:22:25.613Z,24.91
2022-07-26T18:24:53.311Z,24.95
2022-07-26T18:27:22.239Z,24.88
2022-07-26T18:29:50.435Z,24.91
2022-07-26T18:32:19.664Z,24.94
2022-07-26T18:34:51.965Z,24.96
2022-07-26T18:37:24.498Z,24.96
2022-07-26T18:39:57.360Z,24.91
2022-07-26T18:42:25.943Z,24.91
2022-07-26T18:44:53.925Z,24.92
2022-07-26T18:47:23.034Z,24.94
2022-07-26T18:49:51.441Z,24.95
2022-07-26T18:52:28.746Z,24.90
2022-07-26T18:55:02.016Z,24.83
2022-07-26T18:57:29.766Z,24.91
2022-07-26T18:59:57.813Z,24.96
2022-07-26T19:02:27.558Z,24.94
2022-07-26T19:04:55.309Z,24.80
2022-07-26T19:07:23.124Z,24.79
2022-07-26T19:09:56.413Z,24.85
2022-07-26T19:12:26.342Z,24.89
2022-07-26T19:14:54.030Z,24.90
2022-07-26T19:17:22.163Z,24.83
2022-07-26T19:19:51.322Z,24.93
2022-07-26T19:22:19.196Z,24.80
2022-07-26T19:24:48.653Z,24.94
2022-07-26T19:27:17.628Z,24.84
2022-07-26T19:29:45.465Z,24.94
2022-07-26T19:32:13.204Z,24.87
2022-07-26T19:34:41.225Z,24.88
2022-07-26T19:37:10.280Z,24.90
2022-07-26T19:39:38.011Z,24.89
2022-07-26T19:44:58.300Z,24.89
2022-07-26T19:47:26.705Z,24.88
2022-07-26T19:49:54.456Z,24.90
2022-07-26T19:52:23.862Z,24.82
2022-07-26T19:54:51.694Z,24.85
2022-07-26T19:57:19.823Z,24.76
2022-07-26T19:59:47.766Z,24.91
2022-07-26T20:02:16.016Z,24.88
2022-07-26T20:04:46.195Z,24.89
2022-07-26T20:07:19.772Z,24.77
2022-07-26T20:09:49.594Z,24.63
2022-07-26T20:12:18.347Z,24.60
2022-07-26T20:14:46.320Z,24.60
2022-07-26T20:17:15.366Z,24.51
2022-07-26T20:19:46.007Z,24.44
2022-07-26T20:22:13.769Z,24.79
2022-07-26T20:24:41.438Z,24.88
2022-07-26T20:27:10.575Z,24.81
2022-07-26T20:29:38.957Z,24.68
2022-07-26T20:32:07.346Z,24.51
2022-07-26T20:34:35.087Z,24.45
2022-07-26T20:37:05.340Z,24.34
2022-07-26T20:39:33.916Z,24.39
2022-07-26T20:42:01.768Z,24.46
2022-07-26T20:47:26.728Z,24.73
2022-07-26T20:49:57.274Z,24.73
2022-07-26T20:52:27.488Z,24.73
2022-07-26T20:54:55.159Z,24.75
2022-07-26T20:57:23.550Z,24.77
2022-07-26T20:59:52.787Z,24.64
2022-07-26T21:02:20.498Z,24.72
2022-07-26T21:04:48.217Z,24.65
2022-07-26T21:07:16.188Z,24.64
2022-07-26T21:09:43.947Z,24.60
2022-07-26T21:12:11.775Z,24.58
2022-07-26T21:14:39.494Z,24.50
2022-07-26T21:17:11.932Z,24.59
2022-07-26T21:19:40.113Z,24.54
2022-07-26T21:22:08.569Z,24.51
2022-07-26T21:24:36.939Z,24.64
2022-07-26T21:27:05.814Z,24.61
2022-07-26T21:29:39.267Z,24.58
2022-07-26T21:32:08.721Z,24.57
2022-07-26T21:34:36.545Z,24.46
2022-07-26T21:37:05.389Z,24.74
2022-07-26T21:39:33.705Z,24.79
2022-07-26T21:42:01.425Z,24.73
2022-07-26T21:44:29.116Z,24.54
2022-07-26T21:46:56.933Z,24.47
2022-07-26T21:49:26.094Z,24.45
2022-07-26T21:51:53.779Z,24.48
2022-07-26T21:54:21.516Z,24.39
2022-07-26T21:56:49.267Z,24.56
2022-07-26T21:59:17.062Z,24.43
2022-07-26T22:01:44.790Z,24.33
2022-07-26T22:04:12.462Z,24.24
2022-07-26T22:06:41.517Z,24.37
2022-07-26T22:09:10.338Z,24.47
2022-07-26T22:11:38.207Z,24.44
2022-07-26T22:14:08.245Z,24.52
2022-07-26T22:16:36.444Z,24.63
2022-07-26T22:19:04.305Z,24.57
2022-07-26T22:21:32.001Z,24.50
2022-07-26T22:24:01.369Z,24.73
2022-07-26T22:26:31.161Z,24.61
2022-07-26T22:28:59.114Z,24.64
2022-07-26T22:31:26.935Z,24.57
2022-07-26T22:33:54.729Z,24.50
2022-07-26T22:36:22.454Z,24.45
2022-07-26T22:38:50.124Z,24.40
2022-07-26T22:41:19.232Z,24.19
2022-07-26T22:43:46.934Z,24.19
2022-07-26T22:46:14.796Z,24.22
2022-07-26T22:48:47.814Z,24.14
2022-07-26T22:51:15.825Z,24.06
2022-07-26T22:53:43.478Z,24.05
2022-07-26T22:56:11.178Z,24.24
2022-07-26T22:58:40.743Z,24.31
2022-07-26T23:01:08.501Z,24.32
2022-07-26T23:03:36.230Z,24.19
2022-07-26T23:06:06.037Z,24.09
2022-07-26T23:08:53.654Z,24.22
2022-07-26T23:11:21.370Z,24.23
2022-07-26T23:13:50.473Z,24.12
2022-07-26T23:16:27.097Z,23.99
2022-07-26T23:18:55.545Z,24.28
2022-07-26T23:21:23.293Z,24.25
2022-07-26T23:23:50.976Z,24.13
2022-07-26T23:26:18.738Z,24.14
2022-07-26T23:28:46.827Z,24.13
2022-07-26T23:31:15.985Z,24.16
2022-07-26T23:33:50.755Z,24.15
2022-07-26T23:36:21.698Z,24.13
2022-07-26T23:38:49.377Z,24.12
2022-07-26T23:41:17.078Z,24.09
2022-07-26T23:43:44.818Z,23.93
2022-07-26T23:46:12.674Z,23.82
2022-07-26T23:48:41.846Z,23.75
2022-07-26T23:51:09.602Z,23.68
2022-07-26T23:53:37.377Z,23.71
2022-07-26T23:56:05.417Z,23.65
2022-07-26T23:58:33.213Z,23.65
